sensor_id;sensor_type;location;lat;lon;timestamp;P1;durP1;ratioP1;P2;durP2;ratioP2
42598;SDS011;28225;42.714;23.860;2023-09-19T00:00:07;2.30;;;2.10;;
42598;SDS011;28225;42.714;23.860;2023-09-19T00:00:23;2.30;;;2.10;;
42598;SDS011;28225;42.714;23.860;2023-09-19T00:00:40;2.05;;;1.88;;
42598;SDS011;28225;42.714;23.860;2023-09-19T00:00:57;2.35;;;1.90;;
42598;SDS011;28225;42.714;23.860;2023-09-19T00:01:12;2.17;;;1.95;;
42598;SDS011;28225;42.714;23.860;2023-09-19T00:01:29;2.50;;;2.30;;
42598;SDS011;28225;42.714;23.860;2023-09-19T00:01:47;2.28;;;1.90;;
42598;SDS011;28225;42.714;23.860;2023-09-19T00:02:03;2.57;;;1.90;;
42598;SDS011;28225;42.714;23.860;2023-09-19T00:02:19;2.33;;;2.13;;
42598;SDS011;28225;42.714;23.860;2023-09-19T00:02:35;3.60;;;2.10;;
42598;SDS011;28225;42.714;23.860;2023-09-19T00:02:58;3.67;;;1.95;;
42598;SDS011;28225;42.714;23.860;2023-09-19T00:03:16;3.40;;;2.30;;
42598;SDS011;28225;42.714;23.860;2023-09-19T00:03:31;3.95;;;2.22;;
42598;SDS011;28225;42.714;23.860;2023-09-19T00:03:47;3.70;;;2.07;;
42598;SDS011;28225;42.714;23.860;2023-09-19T00:04:02;3.83;;;2.00;;
42598;SDS011;28225;42.714;23.860;2023-09-19T00:04:18;4.27;;;2.10;;
42598;SDS011;28225;42.714;23.860;2023-09-19T00:04:38;2.40;;;2.20;;
42598;SDS011;28225;42.714;23.860;2023-09-19T00:04:54;2.35;;;2.15;;
42598;SDS011;28225;42.714;23.860;2023-09-19T00:05:10;2.07;;;1.87;;
42598;SDS011;28225;42.714;23.860;2023-09-19T00:05:33;2.22;;;1.88;;
42598;SDS011;28225;42.714;23.860;2023-09-19T00:05:49;2.00;;;1.90;;
42598;SDS011;28225;42.714;23.860;2023-09-19T00:06:05;2.08;;;1.88;;
42598;SDS011;28225;42.714;23.860;2023-09-19T00:06:22;2.63;;;2.00;;
42598;SDS011;28225;42.714;23.860;2023-09-19T00:06:41;2.60;;;2.13;;
42598;SDS011;28225;42.714;23.860;2023-09-19T00:06:58;1.80;;;1.70;;
42598;SDS011;28225;42.714;23.860;2023-09-19T00:07:17;2.15;;;1.83;;
42598;SDS011;28225;42.714;23.860;2023-09-19T00:07:33;2.20;;;1.85;;
42598;SDS011;28225;42.714;23.860;2023-09-19T00:07:48;2.37;;;2.17;;
42598;SDS011;28225;42.714;23.860;2023-09-19T00:08:05;2.42;;;2.20;;
42598;SDS011;28225;42.714;23.860;2023-09-19T00:08:21;2.58;;;2.15;;
42598;SDS011;28225;42.714;23.860;2023-09-19T00:08:39;2.17;;;1.98;;
42598;SDS011;28225;42.714;23.860;2023-09-19T00:08:55;2.05;;;1.85;;
42598;SDS011;28225;42.714;23.860;2023-09-19T00:09:10;1.73;;;1.63;;
42598;SDS011;28225;42.714;23.860;2023-09-19T00:09:25;1.90;;;1.73;;
42598;SDS011;28225;42.714;23.860;2023-09-19T00:09:42;2.22;;;1.80;;
42598;SDS011;28225;42.714;23.860;2023-09-19T00:09:59;1.93;;;1.73;;
42598;SDS011;28225;42.714;23.860;2023-09-19T00:10:15;1.50;;;1.40;;
42598;SDS011;28225;42.714;23.860;2023-09-19T00:10:32;1.90;;;1.75;;
42598;SDS011;28225;42.714;23.860;2023-09-19T00:10:49;2.00;;;1.90;;
42598;SDS011;28225;42.714;23.860;2023-09-19T00:11:05;1.90;;;1.80;;
42598;SDS011;28225;42.714;23.860;2023-09-19T00:11:21;2.10;;;1.90;;
42598;SDS011;28225;42.714;23.860;2023-09-19T00:11:37;2.00;;;1.80;;
42598;SDS011;28225;42.714;23.860;2023-09-19T00:11:56;2.17;;;1.90;;
42598;SDS011;28225;42.714;23.860;2023-09-19T00:12:11;2.77;;;1.93;;
42598;SDS011;28225;42.714;23.860;2023-09-19T00:12:28;2.47;;;1.70;;
42598;SDS011;28225;42.714;23.860;2023-09-19T00:12:43;2.30;;;1.67;;
42598;SDS011;28225;42.714;23.860;2023-09-19T00:12:59;1.90;;;1.70;;
42598;SDS011;28225;42.714;23.860;2023-09-19T00:13:14;1.95;;;1.85;;
42598;SDS011;28225;42.714;23.860;2023-09-19T00:13:30;2.10;;;1.93;;
42598;SDS011;28225;42.714;23.860;2023-09-19T00:13:47;2.20;;;2.05;;
42598;SDS011;28225;42.714;23.860;2023-09-19T00:14:05;2.10;;;2.00;;
42598;SDS011;28225;42.714;23.860;2023-09-19T00:14:24;2.30;;;2.20;;
42598;SDS011;28225;42.714;23.860;2023-09-19T00:14:40;2.53;;;2.33;;
42598;SDS011;28225;42.714;23.860;2023-09-19T00:14:55;2.40;;;2.20;;
42598;SDS011;28225;42.714;23.860;2023-09-19T00:15:11;2.05;;;1.85;;
42598;SDS011;28225;42.714;23.860;2023-09-19T00:15:27;2.10;;;1.90;;
42598;SDS011;28225;42.714;23.860;2023-09-19T00:15:46;3.47;;;2.10;;
42598;SDS011;28225;42.714;23.860;2023-09-19T00:16:09;3.90;;;2.08;;
42598;SDS011;28225;42.714;23.860;2023-09-19T00:16:25;2.20;;;2.00;;
42598;SDS011;28225;42.714;23.860;2023-09-19T00:16:42;2.33;;;2.13;;
42598;SDS011;28225;42.714;23.860;2023-09-19T00:16:57;2.27;;;2.07;;
42598;SDS011;28225;42.714;23.860;2023-09-19T00:17:15;2.47;;;2.28;;
42598;SDS011;28225;42.714;23.860;2023-09-19T00:17:31;2.50;;;2.30;;
42598;SDS011;28225;42.714;23.860;2023-09-19T00:17:47;2.35;;;2.08;;
42598;SDS011;28225;42.714;23.860;2023-09-19T00:18:02;4.43;;;2.10;;
42598;SDS011;28225;42.714;23.860;2023-09-19T00:18:21;3.17;;;2.20;;
42598;SDS011;28225;42.714;23.860;2023-09-19T00:18:37;2.33;;;2.03;;
42598;SDS011;28225;42.714;23.860;2023-09-19T00:18:53;3.08;;;2.25;;
42598;SDS011;28225;42.714;23.860;2023-09-19T00:19:08;3.00;;;2.33;;
42598;SDS011;28225;42.714;23.860;2023-09-19T00:19:24;2.50;;;2.30;;
42598;SDS011;28225;42.714;23.860;2023-09-19T00:19:39;2.67;;;2.47;;
42598;SDS011;28225;42.714;23.860;2023-09-19T00:19:57;2.75;;;2.55;;
42598;SDS011;28225;42.714;23.860;2023-09-19T00:20:13;2.78;;;2.58;;
42598;SDS011;28225;42.714;23.860;2023-09-19T00:20:32;2.75;;;2.50;;
42598;SDS011;28225;42.714;23.860;2023-09-19T00:20:49;4.03;;;2.88;;
42598;SDS011;28225;42.714;23.860;2023-09-19T00:21:06;3.47;;;2.60;;
42598;SDS011;28225;42.714;23.860;2023-09-19T00:21:22;2.42;;;2.22;;
42598;SDS011;28225;42.714;23.860;2023-09-19T00:21:37;2.40;;;2.20;;
42598;SDS011;28225;42.714;23.860;2023-09-19T00:21:53;2.10;;;1.90;;
42598;SDS011;28225;42.714;23.860;2023-09-19T00:22:08;2.00;;;1.80;;
42598;SDS011;28225;42.714;23.860;2023-09-19T00:22:23;2.40;;;2.20;;
42598;SDS011;28225;42.714;23.860;2023-09-19T00:22:41;2.53;;;2.25;;
42598;SDS011;28225;42.714;23.860;2023-09-19T00:22:59;2.80;;;2.28;;
42598;SDS011;28225;42.714;23.860;2023-09-19T00:23:20;3.00;;;2.17;;
42598;SDS011;28225;42.714;23.860;2023-09-19T00:23:36;3.83;;;2.30;;
42598;SDS011;28225;42.714;23.860;2023-09-19T00:23:51;3.13;;;2.08;;
42598;SDS011;28225;42.714;23.860;2023-09-19T00:24:07;3.17;;;2.30;;
42598;SDS011;28225;42.714;23.860;2023-09-19T00:24:23;3.95;;;2.33;;
42598;SDS011;28225;42.714;23.860;2023-09-19T00:24:39;2.90;;;2.10;;
42598;SDS011;28225;42.714;23.860;2023-09-19T00:24:55;3.38;;;2.35;;
42598;SDS011;28225;42.714;23.860;2023-09-19T00:25:11;4.33;;;2.23;;
42598;SDS011;28225;42.714;23.860;2023-09-19T00:25:26;4.70;;;1.98;;
42598;SDS011;28225;42.714;23.860;2023-09-19T00:25:42;2.30;;;2.10;;
42598;SDS011;28225;42.714;23.860;2023-09-19T00:26:01;2.60;;;2.40;;
42598;SDS011;28225;42.714;23.860;2023-09-19T00:26:16;2.67;;;2.42;;
42598;SDS011;28225;42.714;23.860;2023-09-19T00:26:33;3.63;;;2.58;;
42598;SDS011;28225;42.714;23.860;2023-09-19T00:26:49;2.95;;;2.58;;
42598;SDS011;28225;42.714;23.860;2023-09-19T00:27:04;3.20;;;2.90;;
42598;SDS011;28225;42.714;23.860;2023-09-19T00:27:20;3.03;;;2.78;;
42598;SDS011;28225;42.714;23.860;2023-09-19T00:27:36;3.07;;;2.37;;
42598;SDS011;28225;42.714;23.860;2023-09-19T00:27:56;3.53;;;2.35;;
42598;SDS011;28225;42.714;23.860;2023-09-19T00:28:11;3.25;;;2.38;;
42598;SDS011;28225;42.714;23.860;2023-09-19T00:28:27;3.10;;;2.43;;
42598;SDS011;28225;42.714;23.860;2023-09-19T00:28:44;3.10;;;2.15;;
42598;SDS011;28225;42.714;23.860;2023-09-19T00:29:00;2.77;;;2.13;;
42598;SDS011;28225;42.714;23.860;2023-09-19T00:29:18;2.78;;;2.38;;
42598;SDS011;28225;42.714;23.860;2023-09-19T00:29:34;2.70;;;2.45;;
42598;SDS011;28225;42.714;23.860;2023-09-19T00:29:50;2.58;;;2.38;;
42598;SDS011;28225;42.714;23.860;2023-09-19T00:30:06;2.93;;;2.67;;
42598;SDS011;28225;42.714;23.860;2023-09-19T00:30:23;3.03;;;2.67;;
42598;SDS011;28225;42.714;23.860;2023-09-19T00:30:39;3.20;;;2.43;;
42598;SDS011;28225;42.714;23.860;2023-09-19T00:30:57;3.03;;;2.30;;
42598;SDS011;28225;42.714;23.860;2023-09-19T00:31:16;2.42;;;2.22;;
42598;SDS011;28225;42.714;23.860;2023-09-19T00:31:31;2.90;;;2.30;;
42598;SDS011;28225;42.714;23.860;2023-09-19T00:31:47;3.53;;;2.63;;
42598;SDS011;28225;42.714;23.860;2023-09-19T00:32:02;2.90;;;2.63;;
42598;SDS011;28225;42.714;23.860;2023-09-19T00:32:18;2.67;;;2.47;;
42598;SDS011;28225;42.714;23.860;2023-09-19T00:32:33;2.30;;;2.10;;
42598;SDS011;28225;42.714;23.860;2023-09-19T00:32:50;2.33;;;2.08;;
42598;SDS011;28225;42.714;23.860;2023-09-19T00:33:09;2.30;;;2.10;;
42598;SDS011;28225;42.714;23.860;2023-09-19T00:33:26;2.35;;;1.95;;
42598;SDS011;28225;42.714;23.860;2023-09-19T00:33:44;2.50;;;2.15;;
42598;SDS011;28225;42.714;23.860;2023-09-19T00:33:59;2.30;;;2.10;;
42598;SDS011;28225;42.714;23.860;2023-09-19T00:34:24;2.50;;;2.30;;
42598;SDS011;28225;42.714;23.860;2023-09-19T00:34:40;2.60;;;2.40;;
42598;SDS011;28225;42.714;23.860;2023-09-19T00:34:57;2.90;;;2.60;;
42598;SDS011;28225;42.714;23.860;2023-09-19T00:35:13;2.87;;;2.63;;
42598;SDS011;28225;42.714;23.860;2023-09-19T00:35:31;2.58;;;2.10;;
42598;SDS011;28225;42.714;23.860;2023-09-19T00:35:51;2.20;;;1.83;;
42598;SDS011;28225;42.714;23.860;2023-09-19T00:36:08;2.17;;;2.05;;
42598;SDS011;28225;42.714;23.860;2023-09-19T00:36:23;2.38;;;2.17;;
42598;SDS011;28225;42.714;23.860;2023-09-19T00:36:38;2.33;;;2.13;;
42598;SDS011;28225;42.714;23.860;2023-09-19T00:36:54;2.17;;;1.98;;
42598;SDS011;28225;42.714;23.860;2023-09-19T00:37:10;2.33;;;1.90;;
42598;SDS011;28225;42.714;23.860;2023-09-19T00:37:26;2.85;;;1.90;;
42598;SDS011;28225;42.714;23.860;2023-09-19T00:37:41;3.20;;;2.00;;
42598;SDS011;28225;42.714;23.860;2023-09-19T00:37:57;3.03;;;2.10;;
42598;SDS011;28225;42.714;23.860;2023-09-19T00:38:12;2.70;;;2.03;;
42598;SDS011;28225;42.714;23.860;2023-09-19T00:38:32;2.22;;;1.88;;
42598;SDS011;28225;42.714;23.860;2023-09-19T00:38:47;1.90;;;1.70;;
42598;SDS011;28225;42.714;23.860;2023-09-19T00:39:03;1.90;;;1.70;;
42598;SDS011;28225;42.714;23.860;2023-09-19T00:39:20;2.78;;;1.77;;
42598;SDS011;28225;42.714;23.860;2023-09-19T00:39:36;3.50;;;1.70;;
42598;SDS011;28225;42.714;23.860;2023-09-19T00:39:52;3.57;;;1.90;;
42598;SDS011;28225;42.714;23.860;2023-09-19T00:40:07;2.87;;;2.30;;
42598;SDS011;28225;42.714;23.860;2023-09-19T00:40:27;2.60;;;2.40;;
42598;SDS011;28225;42.714;23.860;2023-09-19T00:40:45;2.60;;;2.20;;
42598;SDS011;28225;42.714;23.860;2023-09-19T00:41:01;3.13;;;2.35;;
42598;SDS011;28225;42.714;23.860;2023-09-19T00:41:16;2.97;;;2.33;;
42598;SDS011;28225;42.714;23.860;2023-09-19T00:41:32;2.40;;;2.15;;
42598;SDS011;28225;42.714;23.860;2023-09-19T00:41:50;2.42;;;2.03;;
42598;SDS011;28225;42.714;23.860;2023-09-19T00:42:06;2.55;;;2.00;;
42598;SDS011;28225;42.714;23.860;2023-09-19T00:42:23;4.00;;;2.28;;
42598;SDS011;28225;42.714;23.860;2023-09-19T00:42:39;4.10;;;2.53;;
42598;SDS011;28225;42.714;23.860;2023-09-19T00:42:58;2.95;;;2.40;;
42598;SDS011;28225;42.714;23.860;2023-09-19T00:43:16;4.15;;;2.55;;
42598;SDS011;28225;42.714;23.860;2023-09-19T00:43:32;3.40;;;2.17;;
42598;SDS011;28225;42.714;23.860;2023-09-19T00:43:49;2.53;;;2.10;;
42598;SDS011;28225;42.714;23.860;2023-09-19T00:44:05;2.78;;;2.50;;
42598;SDS011;28225;42.714;23.860;2023-09-19T00:44:21;2.70;;;2.50;;
42598;SDS011;28225;42.714;23.860;2023-09-19T00:44:38;2.70;;;2.45;;
42598;SDS011;28225;42.714;23.860;2023-09-19T00:44:55;3.08;;;2.50;;
42598;SDS011;28225;42.714;23.860;2023-09-19T00:45:11;3.60;;;2.50;;
42598;SDS011;28225;42.714;23.860;2023-09-19T00:45:27;4.50;;;2.53;;
42598;SDS011;28225;42.714;23.860;2023-09-19T00:45:44;3.42;;;2.22;;
42598;SDS011;28225;42.714;23.860;2023-09-19T00:46:02;2.63;;;2.33;;
42598;SDS011;28225;42.714;23.860;2023-09-19T00:46:21;2.78;;;2.38;;
42598;SDS011;28225;42.714;23.860;2023-09-19T00:46:36;2.60;;;2.20;;
42598;SDS011;28225;42.714;23.860;2023-09-19T00:46:52;2.60;;;2.37;;
42598;SDS011;28225;42.714;23.860;2023-09-19T00:47:08;2.78;;;2.20;;
42598;SDS011;28225;42.714;23.860;2023-09-19T00:47:24;2.42;;;1.98;;
42598;SDS011;28225;42.714;23.860;2023-09-19T00:47:49;2.33;;;2.13;;
42598;SDS011;28225;42.714;23.860;2023-09-19T00:48:05;2.45;;;2.00;;
42598;SDS011;28225;42.714;23.860;2023-09-19T00:48:24;2.50;;;2.30;;
42598;SDS011;28225;42.714;23.860;2023-09-19T00:48:40;2.58;;;2.38;;
42598;SDS011;28225;42.714;23.860;2023-09-19T00:48:58;2.45;;;2.25;;
42598;SDS011;28225;42.714;23.860;2023-09-19T00:49:14;2.80;;;2.20;;
42598;SDS011;28225;42.714;23.860;2023-09-19T00:49:30;2.47;;;1.90;;
42598;SDS011;28225;42.714;23.860;2023-09-19T00:49:45;2.10;;;1.90;;
42598;SDS011;28225;42.714;23.860;2023-09-19T00:50:04;2.25;;;2.05;;
42598;SDS011;28225;42.714;23.860;2023-09-19T00:50:23;2.55;;;2.28;;
42598;SDS011;28225;42.714;23.860;2023-09-19T00:50:41;4.00;;;2.30;;
42598;SDS011;28225;42.714;23.860;2023-09-19T00:50:58;3.42;;;2.20;;
42598;SDS011;28225;42.714;23.860;2023-09-19T00:51:17;2.72;;;2.42;;
42598;SDS011;28225;42.714;23.860;2023-09-19T00:51:35;2.30;;;2.10;;
42598;SDS011;28225;42.714;23.860;2023-09-19T00:51:51;2.40;;;1.90;;
42598;SDS011;28225;42.714;23.860;2023-09-19T00:52:06;2.33;;;1.90;;
42598;SDS011;28225;42.714;23.860;2023-09-19T00:52:25;1.88;;;1.73;;
42598;SDS011;28225;42.714;23.860;2023-09-19T00:52:41;3.03;;;2.20;;
42598;SDS011;28225;42.714;23.860;2023-09-19T00:52:57;2.75;;;2.22;;
42598;SDS011;28225;42.714;23.860;2023-09-19T00:53:14;2.35;;;2.10;;
42598;SDS011;28225;42.714;23.860;2023-09-19T00:53:31;2.50;;;2.30;;
42598;SDS011;28225;42.714;23.860;2023-09-19T00:53:49;2.40;;;2.20;;
42598;SDS011;28225;42.714;23.860;2023-09-19T00:54:04;2.37;;;2.17;;
42598;SDS011;28225;42.714;23.860;2023-09-19T00:54:20;2.70;;;2.03;;
42598;SDS011;28225;42.714;23.860;2023-09-19T00:54:36;2.97;;;2.00;;
42598;SDS011;28225;42.714;23.860;2023-09-19T00:54:51;2.10;;;1.90;;
42598;SDS011;28225;42.714;23.860;2023-09-19T00:55:10;2.03;;;1.88;;
42598;SDS011;28225;42.714;23.860;2023-09-19T00:55:26;2.58;;;2.15;;
42598;SDS011;28225;42.714;23.860;2023-09-19T00:55:42;2.67;;;2.30;;
42598;SDS011;28225;42.714;23.860;2023-09-19T00:55:59;2.30;;;2.10;;
42598;SDS011;28225;42.714;23.860;2023-09-19T00:56:15;2.93;;;2.33;;
42598;SDS011;28225;42.714;23.860;2023-09-19T00:56:33;3.13;;;2.33;;
42598;SDS011;28225;42.714;23.860;2023-09-19T00:56:48;2.40;;;2.20;;
42598;SDS011;28225;42.714;23.860;2023-09-19T00:57:05;3.38;;;2.40;;
42598;SDS011;28225;42.714;23.860;2023-09-19T00:57:23;2.38;;;1.95;;
42598;SDS011;28225;42.714;23.860;2023-09-19T00:57:38;1.98;;;1.88;;
42598;SDS011;28225;42.714;23.860;2023-09-19T00:57:55;2.40;;;2.20;;
42598;SDS011;28225;42.714;23.860;2023-09-19T00:58:10;2.42;;;2.20;;
42598;SDS011;28225;42.714;23.860;2023-09-19T00:58:26;2.47;;;2.03;;
42598;SDS011;28225;42.714;23.860;2023-09-19T00:58:47;2.28;;;2.08;;
42598;SDS011;28225;42.714;23.860;2023-09-19T00:59:03;2.43;;;2.00;;
42598;SDS011;28225;42.714;23.860;2023-09-19T00:59:18;2.67;;;1.83;;
42598;SDS011;28225;42.714;23.860;2023-09-19T00:59:34;2.43;;;1.93;;
42598;SDS011;28225;42.714;23.860;2023-09-19T00:59:50;3.00;;;2.20;;
42598;SDS011;28225;42.714;23.860;2023-09-19T01:00:09;2.35;;;2.15;;
42598;SDS011;28225;42.714;23.860;2023-09-19T01:00:27;2.60;;;2.40;;
42598;SDS011;28225;42.714;23.860;2023-09-19T01:00:43;2.28;;;2.08;;
42598;SDS011;28225;42.714;23.860;2023-09-19T01:00:59;2.17;;;2.00;;
42598;SDS011;28225;42.714;23.860;2023-09-19T01:01:15;2.07;;;1.87;;
42598;SDS011;28225;42.714;23.860;2023-09-19T01:01:31;2.47;;;1.92;;
42598;SDS011;28225;42.714;23.860;2023-09-19T01:01:47;2.88;;;2.28;;
42598;SDS011;28225;42.714;23.860;2023-09-19T01:02:08;2.50;;;2.30;;
42598;SDS011;28225;42.714;23.860;2023-09-19T01:02:23;2.50;;;2.30;;
42598;SDS011;28225;42.714;23.860;2023-09-19T01:02:39;2.50;;;2.30;;
42598;SDS011;28225;42.714;23.860;2023-09-19T01:02:54;2.43;;;2.23;;
42598;SDS011;28225;42.714;23.860;2023-09-19T01:03:10;2.50;;;2.20;;
42598;SDS011;28225;42.714;23.860;2023-09-19T01:03:28;3.08;;;2.22;;
42598;SDS011;28225;42.714;23.860;2023-09-19T01:03:43;2.83;;;2.03;;
42598;SDS011;28225;42.714;23.860;2023-09-19T01:03:59;1.93;;;1.80;;
42598;SDS011;28225;42.714;23.860;2023-09-19T01:04:14;2.08;;;1.98;;
42598;SDS011;28225;42.714;23.860;2023-09-19T01:04:32;2.40;;;2.20;;
42598;SDS011;28225;42.714;23.860;2023-09-19T01:04:48;2.90;;;2.20;;
42598;SDS011;28225;42.714;23.860;2023-09-19T01:05:04;3.97;;;2.13;;
42598;SDS011;28225;42.714;23.860;2023-09-19T01:05:20;4.43;;;2.15;;
42598;SDS011;28225;42.714;23.860;2023-09-19T01:05:36;2.88;;;1.95;;
42598;SDS011;28225;42.714;23.860;2023-09-19T01:05:51;2.20;;;2.00;;
42598;SDS011;28225;42.714;23.860;2023-09-19T01:06:07;1.95;;;1.75;;
42598;SDS011;28225;42.714;23.860;2023-09-19T01:06:25;2.03;;;1.83;;
42598;SDS011;28225;42.714;23.860;2023-09-19T01:06:41;2.10;;;1.90;;
42598;SDS011;28225;42.714;23.860;2023-09-19T01:06:56;3.30;;;2.10;;
42598;SDS011;28225;42.714;23.860;2023-09-19T01:07:12;5.28;;;2.22;;
42598;SDS011;28225;42.714;23.860;2023-09-19T01:07:30;2.95;;;1.95;;
42598;SDS011;28225;42.714;23.860;2023-09-19T01:07:46;1.90;;;1.75;;
42598;SDS011;28225;42.714;23.860;2023-09-19T01:08:05;2.17;;;1.92;;
42598;SDS011;28225;42.714;23.860;2023-09-19T01:08:21;2.25;;;1.98;;
42598;SDS011;28225;42.714;23.860;2023-09-19T01:08:37;2.30;;;2.10;;
42598;SDS011;28225;42.714;23.860;2023-09-19T01:08:52;2.47;;;2.27;;
42598;SDS011;28225;42.714;23.860;2023-09-19T01:09:10;2.33;;;2.00;;
42598;SDS011;28225;42.714;23.860;2023-09-19T01:09:26;2.22;;;2.03;;
42598;SDS011;28225;42.714;23.860;2023-09-19T01:09:42;2.37;;;2.10;;
42598;SDS011;28225;42.714;23.860;2023-09-19T01:09:58;2.85;;;2.03;;
42598;SDS011;28225;42.714;23.860;2023-09-19T01:10:14;2.80;;;2.17;;
42598;SDS011;28225;42.714;23.860;2023-09-19T01:10:31;2.30;;;2.08;;
42598;SDS011;28225;42.714;23.860;2023-09-19T01:10:55;2.10;;;1.90;;
42598;SDS011;28225;42.714;23.860;2023-09-19T01:11:17;1.95;;;1.85;;
42598;SDS011;28225;42.714;23.860;2023-09-19T01:11:38;2.78;;;2.17;;
42598;SDS011;28225;42.714;23.860;2023-09-19T01:11:58;3.03;;;2.20;;
42598;SDS011;28225;42.714;23.860;2023-09-19T01:12:20;2.55;;;2.20;;
42598;SDS011;28225;42.714;23.860;2023-09-19T01:12:47;2.53;;;2.10;;
42598;SDS011;28225;42.714;23.860;2023-09-19T01:13:09;3.55;;;1.98;;
42598;SDS011;28225;42.714;23.860;2023-09-19T01:13:34;2.40;;;2.20;;
42598;SDS011;28225;42.714;23.860;2023-09-19T01:14:22;2.33;;;2.13;;
42598;SDS011;28225;42.714;23.860;2023-09-19T01:14:55;2.25;;;1.90;;
42598;SDS011;28225;42.714;23.860;2023-09-19T01:15:25;2.45;;;2.22;;
42598;SDS011;28225;42.714;23.860;2023-09-19T01:17:00;2.78;;;2.08;;
42598;SDS011;28225;42.714;23.860;2023-09-19T01:18:45;3.05;;;2.10;;
42598;SDS011;28225;42.714;23.860;2023-09-19T01:20:23;3.70;;;2.40;;
42598;SDS011;28225;42.714;23.860;2023-09-19T01:21:09;2.47;;;2.28;;
42598;SDS011;28225;42.714;23.860;2023-09-19T01:22:13;2.47;;;2.13;;
42598;SDS011;28225;42.714;23.860;2023-09-19T01:22:53;2.28;;;2.08;;
42598;SDS011;28225;42.714;23.860;2023-09-19T01:24:31;2.28;;;2.08;;
42598;SDS011;28225;42.714;23.860;2023-09-19T01:26:29;2.83;;;2.17;;
42598;SDS011;28225;42.714;23.860;2023-09-19T01:26:56;2.55;;;2.35;;
42598;SDS011;28225;42.714;23.860;2023-09-19T01:28:51;3.17;;;1.75;;
42598;SDS011;28225;42.714;23.860;2023-09-19T01:30:04;2.28;;;1.92;;
42598;SDS011;28225;42.714;23.860;2023-09-19T01:30:24;2.95;;;2.28;;
42598;SDS011;28225;42.714;23.860;2023-09-19T01:30:43;2.75;;;2.10;;
42598;SDS011;28225;42.714;23.860;2023-09-19T01:30:59;2.95;;;2.05;;
42598;SDS011;28225;42.714;23.860;2023-09-19T01:31:16;3.08;;;1.98;;
42598;SDS011;28225;42.714;23.860;2023-09-19T01:31:34;2.33;;;2.13;;
42598;SDS011;28225;42.714;23.860;2023-09-19T01:31:52;2.78;;;2.20;;
42598;SDS011;28225;42.714;23.860;2023-09-19T01:32:09;2.47;;;2.05;;
42598;SDS011;28225;42.714;23.860;2023-09-19T01:32:28;1.85;;;1.70;;
42598;SDS011;28225;42.714;23.860;2023-09-19T01:32:44;2.22;;;1.80;;
42598;SDS011;28225;42.714;23.860;2023-09-19T01:33:01;3.03;;;2.00;;
42598;SDS011;28225;42.714;23.860;2023-09-19T01:33:18;2.80;;;2.10;;
42598;SDS011;28225;42.714;23.860;2023-09-19T01:34:12;2.00;;;1.90;;
42598;SDS011;28225;42.714;23.860;2023-09-19T01:34:27;2.20;;;2.03;;
42598;SDS011;28225;42.714;23.860;2023-09-19T01:34:54;2.00;;;1.80;;
42598;SDS011;28225;42.714;23.860;2023-09-19T01:35:19;2.30;;;1.83;;
42598;SDS011;28225;42.714;23.860;2023-09-19T01:35:34;2.30;;;1.70;;
42598;SDS011;28225;42.714;23.860;2023-09-19T01:35:53;2.70;;;2.17;;
42598;SDS011;28225;42.714;23.860;2023-09-19T01:36:12;2.50;;;2.30;;
42598;SDS011;28225;42.714;23.860;2023-09-19T01:36:29;2.03;;;1.93;;
42598;SDS011;28225;42.714;23.860;2023-09-19T01:36:51;2.17;;;2.08;;
42598;SDS011;28225;42.714;23.860;2023-09-19T01:37:06;2.40;;;2.20;;
42598;SDS011;28225;42.714;23.860;2023-09-19T01:37:21;2.60;;;2.40;;
42598;SDS011;28225;42.714;23.860;2023-09-19T01:37:39;2.42;;;2.22;;
42598;SDS011;28225;42.714;23.860;2023-09-19T01:37:58;2.30;;;2.10;;
42598;SDS011;28225;42.714;23.860;2023-09-19T01:38:14;3.05;;;2.20;;
42598;SDS011;28225;42.714;23.860;2023-09-19T01:38:30;3.67;;;2.07;;
42598;SDS011;28225;42.714;23.860;2023-09-19T01:38:45;3.25;;;1.98;;
42598;SDS011;28225;42.714;23.860;2023-09-19T01:39:04;3.23;;;2.20;;
42598;SDS011;28225;42.714;23.860;2023-09-19T01:39:25;2.47;;;2.00;;
42598;SDS011;28225;42.714;23.860;2023-09-19T01:39:41;2.20;;;2.00;;
42598;SDS011;28225;42.714;23.860;2023-09-19T01:40:03;2.22;;;2.03;;
42598;SDS011;28225;42.714;23.860;2023-09-19T01:40:31;2.53;;;2.20;;
42598;SDS011;28225;42.714;23.860;2023-09-19T01:40:51;2.58;;;2.15;;
42598;SDS011;28225;42.714;23.860;2023-09-19T01:41:13;2.92;;;2.10;;
42598;SDS011;28225;42.714;23.860;2023-09-19T01:41:49;3.05;;;2.10;;
42598;SDS011;28225;42.714;23.860;2023-09-19T01:42:31;2.60;;;2.40;;
42598;SDS011;28225;42.714;23.860;2023-09-19T01:43:24;2.45;;;2.25;;
42598;SDS011;28225;42.714;23.860;2023-09-19T01:43:43;3.63;;;2.60;;
42598;SDS011;28225;42.714;23.860;2023-09-19T01:44:01;3.28;;;2.78;;
42598;SDS011;28225;42.714;23.860;2023-09-19T01:44:24;3.10;;;2.80;;
42598;SDS011;28225;42.714;23.860;2023-09-19T01:45:03;3.17;;;2.47;;
42598;SDS011;28225;42.714;23.860;2023-09-19T01:46:09;2.45;;;2.25;;
42598;SDS011;28225;42.714;23.860;2023-09-19T01:46:30;4.50;;;2.70;;
42598;SDS011;28225;42.714;23.860;2023-09-19T01:46:52;2.58;;;2.38;;
42598;SDS011;28225;42.714;23.860;2023-09-19T01:47:32;3.28;;;2.70;;
42598;SDS011;28225;42.714;23.860;2023-09-19T01:47:56;2.70;;;2.50;;
42598;SDS011;28225;42.714;23.860;2023-09-19T01:49:33;2.72;;;2.50;;
42598;SDS011;28225;42.714;23.860;2023-09-19T01:50:37;2.20;;;2.00;;
42598;SDS011;28225;42.714;23.860;2023-09-19T01:51:01;3.35;;;2.10;;
42598;SDS011;28225;42.714;23.860;2023-09-19T01:51:21;2.40;;;2.20;;
42598;SDS011;28225;42.714;23.860;2023-09-19T01:51:56;2.40;;;2.20;;
42598;SDS011;28225;42.714;23.860;2023-09-19T01:52:17;2.03;;;1.83;;
42598;SDS011;28225;42.714;23.860;2023-09-19T01:52:36;2.22;;;2.03;;
42598;SDS011;28225;42.714;23.860;2023-09-19T01:53:03;2.45;;;2.10;;
42598;SDS011;28225;42.714;23.860;2023-09-19T01:54:30;2.90;;;1.70;;
42598;SDS011;28225;42.714;23.860;2023-09-19T01:54:51;2.20;;;2.00;;
42598;SDS011;28225;42.714;23.860;2023-09-19T01:55:08;2.92;;;2.08;;
42598;SDS011;28225;42.714;23.860;2023-09-19T01:55:24;2.00;;;1.80;;
42598;SDS011;28225;42.714;23.860;2023-09-19T01:55:43;1.90;;;1.80;;
42598;SDS011;28225;42.714;23.860;2023-09-19T01:56:05;2.53;;;2.20;;
42598;SDS011;28225;42.714;23.860;2023-09-19T01:56:25;2.95;;;2.20;;
42598;SDS011;28225;42.714;23.860;2023-09-19T01:57:05;2.72;;;2.05;;
42598;SDS011;28225;42.714;23.860;2023-09-19T01:57:28;3.50;;;2.08;;
42598;SDS011;28225;42.714;23.860;2023-09-19T01:58:06;2.85;;;2.05;;
42598;SDS011;28225;42.714;23.860;2023-09-19T01:58:56;4.55;;;2.40;;
42598;SDS011;28225;42.714;23.860;2023-09-19T01:59:16;2.25;;;1.98;;
42598;SDS011;28225;42.714;23.860;2023-09-19T01:59:38;2.20;;;2.00;;
42598;SDS011;28225;42.714;23.860;2023-09-19T02:00:02;2.80;;;2.17;;
42598;SDS011;28225;42.714;23.860;2023-09-19T02:00:22;3.05;;;2.40;;
42598;SDS011;28225;42.714;23.860;2023-09-19T02:00:38;3.45;;;2.67;;
42598;SDS011;28225;42.714;23.860;2023-09-19T02:00:57;2.67;;;2.30;;
42598;SDS011;28225;42.714;23.860;2023-09-19T02:01:19;2.25;;;2.05;;
42598;SDS011;28225;42.714;23.860;2023-09-19T02:01:35;2.33;;;2.10;;
42598;SDS011;28225;42.714;23.860;2023-09-19T02:01:52;2.38;;;2.17;;
42598;SDS011;28225;42.714;23.860;2023-09-19T02:02:08;2.40;;;2.20;;
42598;SDS011;28225;42.714;23.860;2023-09-19T02:02:23;2.37;;;2.17;;
42598;SDS011;28225;42.714;23.860;2023-09-19T02:02:40;2.42;;;2.10;;
42598;SDS011;28225;42.714;23.860;2023-09-19T02:02:57;2.45;;;2.00;;
42598;SDS011;28225;42.714;23.860;2023-09-19T02:03:13;2.47;;;2.20;;
42598;SDS011;28225;42.714;23.860;2023-09-19T02:03:29;2.30;;;2.10;;